Time;durP1;ratioP1;P1;durP2;ratioP2;P2;SDS_P1;SDS_P2;PMS_P1;PMS_P2;Temp;Humidity;BMP_temperature;BMP_pressure;BME280_temperature;BME280_humidity;BME280_pressure;Samples;Min_cycle;Max_cycle;Signal;HPM_P1;HPM_P2
2022/01/15 00:00:20;;;;;;;91.00;41.38;;;;;;;3.03;100.00;103135.13;4978200;28;20399;-89
2022/01/15 00:02:48;;;;;;;90.72;42.72;;;;;;;2.78;100.00;103098.47;4977981;28;20034;-89
2022/01/15 00:05:13;;;;;;;90.18;42.08;;;;;;;2.76;100.00;103087.88;4961710;28;20391;-89
2022/01/15 00:07:47;;;;;;;93.88;43.17;;;;;;;3.15;100.00;103147.66;4977862;28;20045;-89
2022/01/15 00:10:17;;;;;;;100.57;43.15;;;;;;;2.82;100.00;103089.25;4962651;28;20452;-89
2022/01/15 00:12:43;;;;;;;92.30;42.63;;;;;;;2.76;100.00;103085.19;4978015;28;20061;-88
2022/01/15 00:15:16;;;;;;;90.00;41.72;;;;;;;3.17;100.00;103152.91;4977815;28;20108;-89
2022/01/15 00:20:23;;;;;;;98.15;42.67;;;;;;;2.99;100.00;103122.91;4995105;28;20022;-88
2022/01/15 00:22:51;;;;;;;99.13;41.83;;;;;;;2.98;100.00;103121.19;4978123;28;20057;-89
2022/01/15 00:25:21;;;;;;;98.40;41.88;;;;;;;2.93;100.00;103108.09;4995396;28;20415;-90
2022/01/15 00:27:48;;;;;;;101.90;42.78;;;;;;;2.78;100.00;103082.41;4977439;28;20022;-89
2022/01/15 00:30:15;;;;;;;92.50;40.20;;;;;;;2.99;100.00;103117.53;4977710;28;20122;-89
2022/01/15 00:32:41;;;;;;;94.13;41.88;;;;;;;2.96;100.00;103107.03;4977121;28;20033;-89
2022/01/15 00:35:08;;;;;;;86.40;39.58;;;;;;;3.10;100.00;103133.72;4994658;28;20054;-88
2022/01/15 00:37:34;;;;;;;89.32;38.42;;;;;;;3.07;100.00;103138.44;4960948;28;20137;-88
2022/01/15 00:40:04;;;;;;;82.72;37.05;;;;;;;2.84;100.00;103091.84;4977165;28;20501;-88
2022/01/15 00:42:31;;;;;;;80.93;36.15;;;;;;;3.08;100.00;103129.44;4977240;28;20077;-88
2022/01/15 00:45:01;;;;;;;85.00;37.15;;;;;;;3.00;100.00;103119.25;4977174;28;20027;-89
2022/01/15 00:47:31;;;;;;;90.30;38.53;;;;;;;3.04;100.00;103119.88;4977282;28;20132;-89
2022/01/15 00:50:01;;;;;;;87.32;37.92;;;;;;;2.90;100.00;103102.97;4961438;28;20479;-88
2022/01/15 00:52:27;;;;;;;94.50;38.72;;;;;;;2.66;100.00;103051.97;4976724;28;20569;-88
2022/01/15 00:54:53;;;;;;;86.38;37.58;;;;;;;2.99;100.00;103114.84;4976643;28;20049;-88
2022/01/15 00:57:19;;;;;;;85.40;37.95;;;;;;;2.86;100.00;103084.53;4976832;28;20026;-88
2022/01/15 00:59:45;;;;;;;91.05;37.63;;;;;;;2.77;100.00;103073.47;4976782;28;20030;-89
2022/01/15 01:02:10;;;;;;;87.53;36.75;;;;;;;2.95;100.00;103100.81;4960956;28;20041;-89
2022/01/15 01:04:36;;;;;;;81.60;35.55;;;;;;;2.80;100.00;103081.34;4944878;28;20461;-89
2022/01/15 01:07:01;;;;;;;90.50;36.55;;;;;;;2.73;100.00;103057.72;4960752;28;20038;-89
2022/01/15 01:09:39;;;;;;;87.97;36.58;;;;;;;2.97;100.00;103106.06;4976837;28;20027;-89
2022/01/15 01:12:21;;;;;;;87.80;36.75;;;;;;;2.78;100.00;103069.84;4962070;28;20038;-89
2022/01/15 01:20:26;;;;;;;90.00;34.67;;;;;;;2.67;100.00;103052.81;4979653;28;20045;-89
2022/01/15 01:22:57;;;;;;;78.35;31.70;;;;;;;2.53;100.00;103033.19;4976606;28;20034;-89
2022/01/15 01:25:27;;;;;;;81.20;32.13;;;;;;;2.87;100.00;103091.63;4961388;28;20041;-89
2022/01/15 01:27:56;;;;;;;80.28;33.20;;;;;;;2.74;100.00;103068.34;4976494;28;20704;-89
2022/01/15 01:30:27;;;;;;;74.53;32.25;;;;;;;2.57;100.00;103042.75;4960677;28;20093;-89
2022/01/15 01:35:35;;;;;;;84.18;32.88;;;;;;;2.67;100.00;103063.53;4976327;28;20590;-89
2022/01/15 01:38:11;;;;;;;78.30;31.17;;;;;;;2.77;100.00;103081.53;4961933;28;20118;-89
2022/01/15 01:40:40;;;;;;;72.05;30.20;;;;;;;2.73;100.00;103076.50;4961528;28;20117;-89
2022/01/15 01:45:47;;;;;;;82.25;33.15;;;;;;;2.67;100.00;103076.94;4977598;28;20040;-89
2022/01/15 01:48:13;;;;;;;72.88;30.73;;;;;;;2.57;100.00;103052.59;4976428;28;20022;-89
2022/01/15 01:50:38;;;;;;;81.57;31.67;;;;;;;2.40;100.00;103027.84;4959906;28;20497;-89
2022/01/15 01:53:04;;;;;;;71.05;31.15;;;;;;;2.58;100.00;103059.66;4943962;28;20030;-89
2022/01/15 01:55:30;;;;;;;81.18;31.50;;;;;;;2.45;100.00;103035.56;4976221;28;20038;-88
2022/01/15 01:57:57;;;;;;;77.53;32.90;;;;;;;2.31;100.00;103009.75;4975851;28;20023;-88
2022/01/15 02:00:24;;;;;;;85.78;31.13;;;;;;;2.28;100.00;103007.28;4959854;28;20034;-88
2022/01/15 02:02:51;;;;;;;80.88;32.00;;;;;;;2.51;100.00;103048.53;4976100;28;20490;-88
2022/01/15 02:05:17;;;;;;;85.63;31.67;;;;;;;2.45;100.00;103046.28;4975403;28;20479;-89
2022/01/15 02:07:44;;;;;;;72.70;30.95;;;;;;;2.61;100.00;103067.50;4975745;28;20089;-88
2022/01/15 02:10:13;;;;;;;73.22;29.98;;;;;;;2.32;100.00;103016.81;4975675;28;20026;-88
2022/01/15 02:12:39;;;;;;;73.60;30.45;;;;;;;2.31;100.00;103011.59;4975885;28;20029;-88
2022/01/15 02:15:10;;;;;;;78.63;31.40;;;;;;;2.51;100.00;103037.81;4976610;28;20484;-89
2022/01/15 02:17:37;;;;;;;78.18;32.13;;;;;;;2.56;100.00;103056.25;4979198;28;20478;-87
2022/01/15 02:25:49;;;;;;;79.90;31.38;;;;;;;2.58;100.00;103054.31;4979307;28;20096;-89
2022/01/15 02:28:17;;;;;;;80.97;29.95;;;;;;;2.58;100.00;103057.88;4975976;28;20030;-89
2022/01/15 02:30:42;;;;;;;75.05;30.55;;;;;;;2.34;100.00;103014.03;4975936;28;20415;-89
2022/01/15 02:33:08;;;;;;;64.32;28.40;;;;;;;2.37;100.00;103005.78;4943564;28;20092;-89
2022/01/15 02:35:35;;;;;;;73.28;28.80;;;;;;;2.55;100.00;103043.81;4975102;28;20050;-88
2022/01/15 02:38:09;;;;;;;71.45;28.77;;;;;;;2.54;100.00;103036.72;4959034;28;20122;-87
2022/01/15 02:40:35;;;;;;;68.82;28.15;;;;;;;2.33;100.00;102999.75;4975787;28;20027;-89
2022/01/15 02:43:15;;;;;;;70.50;28.20;;;;;;;2.51;100.00;103020.88;4975667;28;20026;-88
2022/01/15 02:45:44;;;;;;;68.47;27.40;;;;;;;2.47;100.00;103009.53;4975493;28;20029;-88
2022/01/15 02:48:13;;;;;;;65.47;26.17;;;;;;;2.45;100.00;103004.28;4959760;28;20030;-88
2022/01/15 02:50:43;;;;;;;72.05;28.15;;;;;;;2.28;100.00;102978.66;4977049;28;20036;-88
2022/01/15 02:53:14;;;;;;;69.78;28.35;;;;;;;2.28;100.00;102975.13;4979165;28;20041;-88
2022/01/15 02:55:44;;;;;;;66.32;27.15;;;;;;;2.24;100.00;102955.75;4996070;28;20034;-87
2022/01/15 02:58:13;;;;;;;67.55;25.58;;;;;;;2.41;100.00;102980.50;4978947;28;20022;-88
2022/01/15 03:00:42;;;;;;;73.18;27.45;;;;;;;2.38;100.00;102983.41;4978772;28;20113;-88
2022/01/15 03:03:11;;;;;;;70.00;27.70;;;;;;;2.17;100.00;102948.25;4978620;28;20541;-88
2022/01/15 03:05:39;;;;;;;65.28;26.48;;;;;;;2.28;100.00;102967.09;4978582;28;20426;-88
2022/01/15 03:08:05;;;;;;;66.85;27.00;;;;;;;2.00;100.00;102918.16;4978803;28;20029;-88
2022/01/15 03:10:31;;;;;;;68.28;26.52;;;;;;;2.27;100.00;102955.53;4978614;28;20023;-88
2022/01/15 03:12:58;;;;;;;61.42;25.23;;;;;;;2.25;100.00;102957.47;4978291;28;20088;-88
2022/01/15 03:15:25;;;;;;;63.90;24.35;;;;;;;1.96;100.00;102918.50;4978989;28;20034;-89
2022/01/15 03:17:51;;;;;;;59.83;25.05;;;;;;;2.37;100.00;102979.84;4978827;28;20029;-89
2022/01/15 03:20:19;;;;;;;57.40;23.42;;;;;;;2.23;100.00;102954.03;4947098;28;20081;-89
2022/01/15 03:22:46;;;;;;;55.03;23.10;;;;;;;2.25;100.00;102952.09;4978709;28;20426;-88
2022/01/15 03:25:13;;;;;;;54.55;22.85;;;;;;;2.24;100.00;102955.75;4978825;28;20146;-88
2022/01/15 03:27:39;;;;;;;54.40;23.45;;;;;;;2.00;100.00;102923.53;4978460;28;20026;-89
2022/01/15 03:30:07;;;;;;;55.85;24.55;;;;;;;2.37;100.00;102973.63;4962370;28;20077;-89
2022/01/15 03:32:33;;;;;;;56.40;24.10;;;;;;;2.40;100.00;102970.72;4978409;28;20034;-88
2022/01/15 03:34:59;;;;;;;62.95;25.00;;;;;;;2.40;100.00;102971.56;4978302;28;20100;-89
2022/01/15 03:37:24;;;;;;;51.10;22.88;;;;;;;2.03;100.00;102899.19;4962326;28;20030;-88
2022/01/15 03:39:50;;;;;;;59.05;24.52;;;;;;;2.10;100.00;102919.22;4962298;28;20119;-88
2022/01/15 03:42:16;;;;;;;58.47;24.65;;;;;;;2.04;100.00;102905.44;4978090;28;20030;-89
2022/01/15 03:44:44;;;;;;;57.03;24.48;;;;;;;2.34;100.00;102953.25;4978214;28;20026;-89
2022/01/15 03:47:10;;;;;;;56.90;24.75;;;;;;;2.38;100.00;102967.31;4978129;28;20026;-88
2022/01/15 03:49:38;;;;;;;55.88;24.27;;;;;;;2.01;100.00;102903.81;4978001;28;20394;-88
2022/01/15 03:52:05;;;;;;;56.05;24.80;;;;;;;1.92;100.00;102885.75;4978300;28;20034;-88
2022/01/15 03:54:30;;;;;;;58.92;25.98;;;;;;;2.22;100.00;102925.53;4961926;28;20030;-88
2022/01/15 03:56:56;;;;;;;56.17;24.85;;;;;;;1.97;100.00;102878.22;4978027;28;20454;-88
2022/01/15 03:59:21;;;;;;;56.05;25.00;;;;;;;2.00;100.00;102878.00;4978097;28;20437;-89
2022/01/15 04:01:50;;;;;;;56.28;24.10;;;;;;;1.95;100.00;102874.81;4978049;28;20470;-89
2022/01/15 04:04:17;;;;;;;50.95;23.17;;;;;;;2.31;100.00;102948.13;4978277;28;20421;-88
2022/01/15 04:06:42;;;;;;;49.08;21.83;;;;;;;2.34;100.00;102947.06;4961519;28;20438;-89
2022/01/15 04:09:09;;;;;;;47.95;22.70;;;;;;;1.88;100.00;102876.19;4977635;28;20026;-88
2022/01/15 04:11:38;;;;;;;55.17;23.20;;;;;;;1.91;100.00;102881.34;4978045;28;20117;-89
2022/01/15 04:14:07;;;;;;;50.17;22.13;;;;;;;2.06;100.00;102906.16;4977807;28;20030;-88
2022/01/15 04:16:33;;;;;;;56.67;23.83;;;;;;;2.22;100.00;102936.25;4977974;28;20049;-88
2022/01/15 04:19:00;;;;;;;53.40;23.45;;;;;;;2.05;100.00;102899.97;4961754;28;20054;-89
2022/01/15 04:21:27;;;;;;;56.08;23.92;;;;;;;1.89;100.00;102873.41;4994923;28;20026;-89
2022/01/15 04:23:53;;;;;;;51.85;22.27;;;;;;;1.87;100.00;102858.41;4977289;28;20026;-89
2022/01/15 04:26:25;;;;;;;56.13;24.30;;;;;;;2.08;100.00;102898.88;4977753;28;20372;-88
2022/01/15 04:29:09;;;;;;;56.45;24.70;;;;;;;2.27;100.00;102915.38;4946315;28;20026;-88
2022/01/15 04:31:51;;;;;;;60.50;25.63;;;;;;;2.01;100.00;102887.75;4961003;28;20545;-88
2022/01/15 04:34:27;;;;;;;60.38;25.83;;;;;;;1.85;100.00;102855.00;4963000;28;20056;-88
2022/01/15 04:37:08;;;;;;;61.90;26.88;;;;;;;2.06;100.00;102895.47;4961419;28;20042;-87
2022/01/15 04:39:40;;;;;;;56.00;23.70;;;;;;;1.85;100.00;102853.19;4977262;28;20097;-88
2022/01/15 04:42:06;;;;;;;;;;;;;;;2.34;100.00;102906.88;4961689;28;20022;-88
2022/01/15 04:44:31;;;;;;;57.58;24.40;;;;;;;1.91;100.00;102847.38;4960873;28;19914;-88
2022/01/15 04:46:59;;;;;;;58.35;25.15;;;;;;;2.24;100.00;102899.50;4976942;28;20030;-88
2022/01/15 04:49:24;;;;;;;59.95;24.33;;;;;;;1.87;100.00;102840.53;4976911;28;20124;-88
2022/01/15 04:51:50;;;;;;;60.72;25.55;;;;;;;2.00;100.00;102869.97;4994245;28;20121;-88
2022/01/15 04:54:16;;;;;;;62.08;25.55;;;;;;;2.05;100.00;102883.91;4961054;28;20058;-88
2022/01/15 04:56:41;;;;;;;55.50;24.40;;;;;;;2.01;100.00;102860.09;4994132;28;20034;-88
2022/01/15 04:59:07;;;;;;;59.13;24.70;;;;;;;1.97;100.00;102847.94;4960433;28;20045;-88
2022/01/15 05:01:32;;;;;;;61.25;25.42;;;;;;;2.16;100.00;102871.56;4976867;28;20022;-88
2022/01/15 05:03:59;;;;;;;57.58;24.30;;;;;;;2.29;100.00;102888.47;4976830;28;20026;-88
2022/01/15 05:06:25;;;;;;;58.05;23.75;;;;;;;2.01;100.00;102836.88;4976774;28;20125;-88
2022/01/15 05:09:01;;;;;;;58.65;24.42;;;;;;;2.16;100.00;102859.03;4976657;28;20367;-88
2022/01/15 05:11:31;;;;;;;54.45;23.38;;;;;;;2.16;100.00;102859.03;4962765;28;20057;-89
2022/01/15 05:13:56;;;;;;;54.42;24.17;;;;;;;2.14;100.00;102868.13;4975933;28;20545;-89
2022/01/15 05:16:22;;;;;;;57.53;25.40;;;;;;;2.26;100.00;102876.13;4976735;28;20026;-89
2022/01/15 05:18:48;;;;;;;53.92;25.25;;;;;;;1.83;100.00;102806.06;4976953;28;20030;-89
2022/01/15 05:21:13;;;;;;;54.38;26.08;;;;;;;2.23;100.00;102879.03;4977036;28;20482;-90
2022/01/15 05:23:39;;;;;;;58.03;26.70;;;;;;;1.99;100.00;102827.25;4977011;28;20048;-89
2022/01/15 05:26:05;;;;;;;56.53;25.88;;;;;;;1.89;100.00;102819.00;4960490;28;20037;-89
2022/01/15 05:28:30;;;;;;;55.67;26.52;;;;;;;2.13;100.00;102845.84;4960615;28;20046;-89
2022/01/15 05:30:56;;;;;;;60.67;27.50;;;;;;;2.14;100.00;102836.84;4960896;28;20045;-89
2022/01/15 05:33:24;;;;;;;63.45;28.00;;;;;;;2.23;100.00;102844.22;4976299;28;20030;-88
2022/01/15 05:35:49;;;;;;;58.60;27.27;;;;;;;1.87;100.00;102792.34;4959566;28;20054;-88
2022/01/15 05:38:15;;;;;;;53.95;26.73;;;;;;;1.99;100.00;102801.31;4960149;28;20045;-88
2022/01/15 05:40:40;;;;;;;59.25;28.27;;;;;;;2.03;100.00;102800.13;4975977;28;20022;-88
2022/01/15 05:43:05;;;;;;;56.72;26.95;;;;;;;2.25;100.00;102834.22;4960427;28;20136;-89
2022/01/15 05:45:31;;;;;;;62.85;29.27;;;;;;;1.96;100.00;102784.63;4959922;28;20497;-88
2022/01/15 05:47:56;;;;;;;58.15;28.67;;;;;;;2.12;100.00;102811.16;4943710;28;20034;-88
2022/01/15 05:50:22;;;;;;;64.47;29.08;;;;;;;2.25;100.00;102833.38;4975497;28;20030;-87
2022/01/15 05:52:48;;;;;;;57.13;28.55;;;;;;;1.95;100.00;102785.56;4960089;28;20125;-88
2022/01/15 05:55:13;;;;;;;59.53;28.30;;;;;;;2.26;100.00;102830.59;4959836;28;20038;-88
2022/01/15 05:57:41;;;;;;;57.72;27.98;;;;;;;1.89;100.00;102774.38;4943721;28;20037;-87
2022/01/15 06:00:08;;;;;;;54.33;26.35;;;;;;;1.88;100.00;102772.66;4960078;28;20065;-88
2022/01/15 06:02:36;;;;;;;56.45;27.02;;;;;;;1.86;100.00;102766.56;4975779;28;20033;-89
2022/01/15 06:05:04;;;;;;;57.35;25.58;;;;;;;2.12;100.00;102801.28;4960110;28;20497;-88
2022/01/15 06:07:30;;;;;;;51.88;24.85;;;;;;;1.81;100.00;102757.16;4959688;28;20027;-89
2022/01/15 06:09:55;;;;;;;52.88;26.35;;;;;;;1.86;100.00;102758.53;4959774;28;20399;-88
2022/01/15 06:12:28;;;;;;;51.40;25.58;;;;;;;2.21;100.00;102815.81;4943955;28;20407;-89
2022/01/15 06:14:53;;;;;;;52.30;25.98;;;;;;;2.04;100.00;102785.78;4960695;28;20112;-88
2022/01/15 06:17:19;;;;;;;54.85;26.63;;;;;;;1.85;100.00;102767.50;4975905;28;20026;-88
2022/01/15 06:19:44;;;;;;;47.30;24.52;;;;;;;2.05;100.00;102795.53;4975835;28;20109;-89
2022/01/15 06:22:10;;;;;;;50.83;24.67;;;;;;;1.91;100.00;102774.25;4959658;28;20360;-88
2022/01/15 06:24:35;;;;;;;51.85;25.60;;;;;;;1.93;100.00;102775.84;4975374;28;20125;-88
2022/01/15 06:27:01;;;;;;;54.28;25.25;;;;;;;1.78;100.00;102754.69;4979738;28;20145;-88
2022/01/15 06:29:29;;;;;;;51.83;25.35;;;;;;;1.75;100.00;102745.91;4980717;28;20029;-90
2022/01/15 06:31:59;;;;;;;51.53;26.70;;;;;;;1.99;100.00;102781.72;4964765;28;20124;-90
2022/01/15 06:34:27;;;;;;;48.70;25.20;;;;;;;2.14;100.00;102802.03;4980792;28;20450;-90
2022/01/15 06:36:58;;;;;;;52.55;25.60;;;;;;;1.99;100.00;102782.56;4965085;28;20475;-89
2022/01/15 06:42:51;;;;;;;56.75;28.02;;;;;;;2.05;100.00;102781.28;4998450;28;20036;-93
2022/01/15 06:45:33;;;;;;;54.53;26.23;;;;;;;1.80;100.00;102742.03;4965650;28;20030;-92
2022/01/15 06:48:02;;;;;;;56.15;26.15;;;;;;;1.77;100.00;102748.47;4966557;28;20034;-92
2022/01/15 06:51:04;;;;;;;56.00;25.38;;;;;;;1.79;100.00;102732.28;4980688;28;20030;-91
2022/01/15 06:57:19;;;;;;;57.15;25.85;;;;;;;2.18;100.00;102799.97;4998197;28;20050;-92
2022/01/15 06:59:53;;;;;;;91.93;25.05;;;;;;;1.77;100.00;102736.91;4981071;28;20030;-92
2022/01/15 07:02:22;;;;;;;73.28;23.15;;;;;;;1.80;100.00;102756.31;4964631;28;20395;-92
2022/01/15 07:05:20;;;;;;;53.00;23.77;;;;;;;2.15;100.00;102803.72;4997193;28;20786;-91
2022/01/15 07:10:53;;;;;;;74.25;24.27;;;;;;;1.91;100.00;102779.59;4998396;28;20394;-92
2022/01/15 07:13:34;;;;;;;80.93;26.88;;;;;;;1.67;100.00;102745.63;4980863;28;20442;-92
2022/01/15 07:16:48;;;;;;;114.07;25.00;;;;;;;2.04;100.00;102799.16;4950793;28;20839;-93
2022/01/15 07:19:36;;;;;;;128.75;21.98;;;;;;;1.89;100.00;102794.91;4979668;28;20399;-92
2022/01/15 07:23:01;;;;;;;;;;;;;;;;;;;;;
2022/01/15 07:29:30;;;;;;;;;;;;;;;;;;;;;
2022/01/15 07:32:25;;;;;;;;;;;;;;;;;;;;;
2022/01/15 07:35:26;;;;;;;48.00;18.88;;;;;;;1.68;100.00;102749.13;4983487;28;20410;-93
2022/01/15 07:37:58;;;;;;;41.05;17.58;;;;;;;1.50;100.00;102729.91;4961971;28;20056;-92
2022/01/15 07:40:52;;;;;;;72.97;18.33;;;;;;;1.89;100.00;102785.06;4949690;28;20041;-93
2022/01/15 07:43:19;;;;;;;47.75;18.58;;;;;;;1.46;100.00;102731.09;4980236;28;20371;-91
2022/01/15 07:45:57;;;;;;;52.20;18.67;;;;;;;1.43;100.00;102734.81;4963693;28;20109;-91
2022/01/15 07:48:28;;;;;;;37.47;17.42;;;;;;;1.57;100.00;102764.13;4980098;28;20038;-91
2022/01/15 07:50:56;;;;;;;43.77;18.60;;;;;;;1.47;100.00;102744.34;4980036;28;20096;-91
2022/01/15 07:53:26;;;;;;;38.55;18.58;;;;;;;1.51;100.00;102758.38;4979716;28;20483;-91
2022/01/15 07:56:13;;;;;;;41.28;18.40;;;;;;;1.82;100.00;102807.88;4979929;28;20081;-91
2022/01/15 07:59:29;;;;;;;45.38;17.52;;;;;;;1.47;100.00;102749.69;4964699;28;20037;-94
2022/01/15 08:13:01;;;;;;;54.45;16.42;;;;;;;1.62;100.00;102763.81;4854489;29;20105;-93
2022/01/15 08:15:39;;;;;;;;;;;;;;;;;;;;;
2022/01/15 08:18:21;;;;;;;39.53;18.67;;;;;;;1.63;100.00;102778.91;4996420;28;20023;-91
2022/01/15 08:20:48;;;;;;;41.90;18.77;;;;;;;1.48;100.00;102745.22;4963139;28;20125;-91
2022/01/15 08:23:16;;;;;;;37.72;17.75;;;;;;;1.65;100.00;102776.97;4962835;28;20452;-91
2022/01/15 08:25:48;;;;;;;36.08;17.50;;;;;;;1.55;100.00;102755.38;4979438;28;20029;-91
2022/01/15 08:28:15;;;;;;;48.17;18.40;;;;;;;1.43;100.00;102731.31;4978817;28;20058;-91
2022/01/15 08:30:43;;;;;;;42.47;19.88;;;;;;;1.53;100.00;102757.28;4979380;28;20052;-91
2022/01/15 08:33:12;;;;;;;37.60;18.48;;;;;;;1.53;100.00;102759.13;4978718;28;20391;-91
2022/01/15 08:35:41;;;;;;;49.58;22.23;;;;;;;1.68;100.00;102778.56;4978606;28;20034;-91
2022/01/15 08:38:06;;;;;;;59.15;22.25;;;;;;;1.71;100.00;102791.72;4962302;28;20058;-91
2022/01/15 08:40:35;;;;;;;53.22;22.33;;;;;;;1.69;100.00;102789.16;4978685;28;20088;-91
2022/01/15 08:43:03;;;;;;;48.75;21.98;;;;;;;1.35;100.00;102729.19;4978470;28;20037;-91
2022/01/15 08:45:34;;;;;;;55.25;21.42;;;;;;;1.56;100.00;102766.91;4978673;28;20031;-91
2022/01/15 08:48:07;;;;;;;50.30;19.92;;;;;;;1.39;100.00;102755.59;4962886;28;20027;-92
2022/01/15 08:50:36;;;;;;;41.13;19.92;;;;;;;1.24;100.00;102729.94;4963111;28;20037;-91
2022/01/15 08:53:07;;;;;;;51.08;20.95;;;;;;;1.20;100.00;102731.13;4978660;28;20027;-92
2022/01/15 08:55:42;;;;;;;52.30;19.88;;;;;;;1.48;100.00;102769.31;4964221;28;20081;-92
2022/01/15 08:58:12;;;;;;;39.45;19.50;;;;;;;1.40;100.00;102756.44;4978716;28;20390;-91
2022/01/15 09:00:46;;;;;;;44.97;20.50;;;;;;;1.38;100.00;102753.88;4963115;28;20402;-92
2022/01/15 09:03:22;;;;;;;46.13;20.90;;;;;;;1.49;100.00;102769.19;4978955;28;20382;-91
2022/01/15 09:05:51;;;;;;;44.28;22.23;;;;;;;1.52;100.00;102765.41;4978366;28;20438;-91
2022/01/15 09:08:29;;;;;;;47.30;21.38;;;;;;;1.52;100.00;102762.75;4977948;28;20030;-91
2022/01/15 09:11:00;;;;;;;46.80;23.30;;;;;;;1.47;100.00;102757.72;4978017;28;20058;-91
2022/01/15 09:13:27;;;;;;;50.35;23.45;;;;;;;1.68;100.00;102789.28;4962617;28;20439;-91
2022/01/15 09:15:53;;;;;;;53.85;24.45;;;;;;;1.42;100.00;102742.97;4978046;28;20110;-91
2022/01/15 09:18:19;;;;;;;50.00;24.58;;;;;;;1.28;100.00;102703.84;4994094;28;20054;-91
2022/01/15 09:20:46;;;;;;;46.40;23.77;;;;;;;1.35;100.00;102707.78;4977123;28;20022;-91
2022/01/15 09:23:12;;;;;;;49.45;24.73;;;;;;;1.53;100.00;102735.88;4977753;28;20027;-92
2022/01/15 09:25:38;;;;;;;46.58;25.33;;;;;;;1.71;100.00;102757.81;4961624;28;20034;-91
2022/01/15 09:30:53;;;;;;;50.40;25.25;;;;;;;1.79;100.00;102741.19;4995221;28;20042;-92
2022/01/15 09:33:18;;;;;;;48.95;25.15;;;;;;;1.50;100.00;102693.28;4978002;28;20112;-91
2022/01/15 09:35:44;;;;;;;47.55;24.38;;;;;;;1.54;100.00;102696.63;4977538;28;20398;-91
2022/01/15 09:38:10;;;;;;;49.80;24.70;;;;;;;1.73;100.00;102728.25;4976846;28;20057;-91
2022/01/15 09:40:38;;;;;;;45.75;24.95;;;;;;;1.55;100.00;102693.84;4978123;28;20038;-91
2022/01/15 09:43:08;;;;;;;47.75;25.35;;;;;;;1.53;100.00;102695.75;4961835;28;20042;-91
2022/01/15 09:45:35;;;;;;;47.10;24.58;;;;;;;1.97;100.00;102752.38;4978251;28;20029;-91
2022/01/15 09:48:04;;;;;;;45.67;24.80;;;;;;;1.75;100.00;102707.59;4977964;28;20390;-91
2022/01/15 09:50:35;;;;;;;50.03;25.52;;;;;;;1.66;100.00;102694.88;4977251;28;20038;-91
2022/01/15 09:53:02;;;;;;;52.55;25.23;;;;;;;2.07;100.00;102756.09;4977660;28;20033;-91
2022/01/15 09:55:28;;;;;;;49.63;26.10;;;;;;;1.69;100.00;102691.97;4977670;28;20173;-91
2022/01/15 09:57:54;;;;;;;49.40;26.50;;;;;;;1.79;100.00;102705.53;4961399;28;20125;-91
2022/01/15 10:00:21;;;;;;;49.15;25.50;;;;;;;2.04;100.00;102732.22;4976644;28;20022;-90
2022/01/15 10:02:49;;;;;;;50.15;27.13;;;;;;;1.92;100.00;102717.06;4977904;28;20105;-91
2022/01/15 10:05:16;;;;;;;47.08;24.30;;;;;;;2.05;100.00;102735.75;4977323;28;20031;-91
2022/01/15 10:08:03;;;;;;;53.15;26.77;;;;;;;1.87;100.00;102695.97;4977390;28;20034;-91
2022/01/15 10:10:30;;;;;;;51.80;28.00;;;;;;;2.11;100.00;102735.28;4976912;28;20406;-92
2022/01/15 10:13:12;;;;;;;51.95;27.10;;;;;;;2.03;100.00;102726.97;4977028;28;20105;-91
2022/01/15 10:15:39;;;;;;;52.33;27.30;;;;;;;2.23;100.00;102758.50;4976962;28;20121;-91
2022/01/15 10:18:35;;;;;;;54.60;28.52;;;;;;;2.32;100.00;102767.69;4960528;28;20070;-91
2022/01/15 10:21:29;;;;;;;59.65;29.00;;;;;;;2.27;100.00;102760.00;4964692;28;20514;-91
2022/01/15 10:23:57;;;;;;;55.05;29.27;;;;;;;2.21;100.00;102739.00;4977084;28;20030;-91
2022/01/15 10:26:27;;;;;;;61.72;30.35;;;;;;;1.97;100.00;102693.47;4977258;28;20027;-91
2022/01/15 10:29:02;;;;;;;56.83;28.85;;;;;;;2.12;100.00;102715.59;4960700;28;20479;-91
2022/01/15 10:31:32;;;;;;;60.78;29.17;;;;;;;2.43;100.00;102758.84;4976761;28;20023;-91
2022/01/15 10:34:19;;;;;;;59.25;29.75;;;;;;;2.25;100.00;102710.19;4976628;28;20023;-91
2022/01/15 10:36:51;;;;;;;63.10;29.25;;;;;;;2.14;100.00;102686.88;4976805;28;20030;-91
2022/01/15 10:39:24;;;;;;;54.95;29.35;;;;;;;2.43;100.00;102724.84;4976619;28;20528;-91
2022/01/15 10:41:52;;;;;;;57.53;28.38;;;;;;;2.34;100.00;102695.25;4976586;28;20018;-92
2022/01/15 10:44:30;;;;;;;65.18;31.38;;;;;;;2.64;100.00;102740.28;4976794;28;20088;-91
2022/01/15 10:47:12;;;;;;;68.00;31.13;;;;;;;2.57;100.00;102726.50;4979693;28;20478;-92
2022/01/15 10:49:41;;;;;;;59.75;30.67;;;;;;;2.72;100.00;102751.28;4994137;28;20057;-92
2022/01/15 10:52:14;;;;;;;73.13;32.15;;;;;;;2.68;100.00;102744.44;4984221;28;20031;-91
2022/01/15 10:54:51;;;;;;;;;;;;;;;2.84;100.00;102746.81;4977950;28;20466;-91
2022/01/15 10:57:26;;;;;;;55.15;28.52;;;;;;;2.76;100.00;102739.34;4993581;28;19909;-91
2022/01/15 11:00:00;;;;;;;60.70;29.38;;;;;;;2.39;100.00;102668.94;4977434;28;20026;-91
2022/01/15 11:02:32;;;;;;;56.00;28.67;;;;;;;2.40;100.00;102670.66;4976824;28;20030;-91
2022/01/15 11:05:06;;;;;;;56.40;28.30;;;;;;;2.71;100.00;102708.50;4976103;28;20051;-92
2022/01/15 11:07:36;;;;;;;59.63;29.88;;;;;;;2.50;100.00;102668.13;4976272;28;20022;-91
2022/01/15 11:10:06;;;;;;;62.63;30.30;;;;;;;2.49;100.00;102655.69;4977269;28;20023;-91
2022/01/15 11:12:41;;;;;;;64.00;30.85;;;;;;;2.57;100.00;102662.19;4996128;28;20074;-91
2022/01/15 11:15:07;;;;;;;56.92;29.65;;;;;;;2.83;100.00;102698.66;4980415;28;20026;-91
2022/01/15 11:17:39;;;;;;;58.38;29.40;;;;;;;2.62;100.00;102657.31;4965488;28;20041;-91
2022/01/15 11:20:06;;;;;;;59.30;29.17;;;;;;;2.65;100.00;102661.59;4980375;28;20030;-91
2022/01/15 11:22:35;;;;;;;63.13;30.58;;;;;;;2.88;100.00;102678.56;4997225;28;20040;-91
2022/01/15 11:25:05;;;;;;;55.58;29.02;;;;;;;2.71;99.96;102658.44;4964566;28;20034;-92
2022/01/15 11:27:31;;;;;;;61.40;29.85;;;;;;;2.97;100.00;102695.78;4980136;28;20022;-92
2022/01/15 11:29:58;;;;;;;48.90;25.90;;;;;;;2.97;98.65;102701.13;4997380;28;20030;-92
2022/01/15 11:32:28;;;;;;;44.30;24.33;;;;;;;2.74;98.15;102655.50;4964123;28;20050;-92
2022/01/15 11:35:04;;;;;;;46.25;24.17;;;;;;;2.86;98.41;102667.09;4980477;28;20034;-92
2022/01/15 11:37:49;;;;;;;49.47;26.27;;;;;;;3.12;98.75;102707.13;4982288;28;20066;-92
2022/01/15 11:40:34;;;;;;;44.30;25.10;;;;;;;3.12;99.14;102694.56;4980555;28;20046;-92
2022/01/15 11:43:24;;;;;;;45.63;24.67;;;;;;;3.15;99.25;102691.63;4980683;28;20121;-91
2022/01/15 11:46:15;;;;;;;48.10;25.10;;;;;;;2.83;98.55;102628.97;4988894;28;20115;-92
2022/01/15 11:48:44;;;;;;;45.75;25.40;;;;;;;3.26;98.73;102693.47;5003125;28;20031;-91
2022/01/15 11:51:17;;;;;;;47.45;26.02;;;;;;;3.34;98.49;102682.13;4975759;28;20030;-91
2022/01/15 11:53:48;;;;;;;42.10;23.65;;;;;;;3.40;98.05;102678.09;4995091;28;20038;-92
2022/01/15 11:56:26;;;;;;;41.13;22.67;;;;;;;3.00;97.25;102612.41;4995923;28;20102;-91
2022/01/15 11:58:57;;;;;;;37.70;22.48;;;;;;;2.80;96.03;102611.28;4995200;28;20030;-91
2022/01/15 12:01:34;;;;;;;38.08;21.67;;;;;;;3.13;97.17;102666.75;4994287;28;20483;-92
2022/01/15 12:04:29;;;;;;;41.08;22.65;;;;;;;3.19;97.30;102664.56;4994201;28;20022;-91
2022/01/15 12:07:09;;;;;;;36.13;20.95;;;;;;;3.18;96.40;102663.72;4994311;28;20415;-92
2022/01/15 12:10:01;;;;;;;39.58;21.83;;;;;;;3.19;96.41;102667.25;4988518;28;20039;-91
2022/01/15 12:12:51;;;;;;;38.00;22.27;;;;;;;3.12;95.97;102673.09;4993029;28;20034;-91
2022/01/15 12:15:26;;;;;;;36.28;21.40;;;;;;;2.72;95.96;102635.19;5010430;28;20113;-91
2022/01/15 12:18:02;;;;;;;40.88;21.98;;;;;;;2.62;96.58;102645.75;4993428;28;20022;-92
2022/01/15 12:21:05;;;;;;;;;;;;;;;;;;;;;